createdAt,value
2018-02-16T00:04:57.283Z,22.95
2018-02-16T00:07:25.001Z,22.77
2018-02-16T00:09:52.710Z,22.15
2018-02-16T00:12:20.576Z,25.45
2018-02-16T00:14:48.444Z,24.95
2018-02-16T00:17:16.311Z,25.80
2018-02-16T00:19:44.038Z,23.12
2018-02-16T00:22:13.890Z,23.75
2018-02-16T00:24:41.610Z,23.55
2018-02-16T00:27:09.317Z,22.77
2018-02-16T00:29:37.047Z,22.08
2018-02-16T00:32:04.762Z,22.67
2018-02-16T00:34:32.480Z,22.13
2018-02-16T00:37:00.198Z,21.58
2018-02-16T00:39:28.039Z,22.95
2018-02-16T00:41:55.758Z,21.70
2018-02-16T00:44:23.570Z,24.92
2018-02-16T00:46:51.438Z,23.45
2018-02-16T00:49:19.153Z,22.25
2018-02-16T00:51:46.866Z,21.67
2018-02-16T00:54:14.586Z,24.23
2018-02-16T00:56:42.498Z,24.15
2018-02-16T00:59:10.215Z,25.12
2018-02-16T01:01:37.945Z,26.50
2018-02-16T01:04:05.790Z,30.62
2018-02-16T01:06:33.493Z,29.17
2018-02-16T01:09:01.981Z,37.33
2018-02-16T01:11:30.466Z,26.80
2018-02-16T01:13:58.946Z,22.65
2018-02-16T01:16:27.432Z,20.92
2018-02-16T01:18:55.247Z,21.20
2018-02-16T01:21:22.965Z,23.38
2018-02-16T01:23:50.674Z,20.85
2018-02-16T01:26:18.439Z,21.37
2018-02-16T01:28:46.306Z,21.60
2018-02-16T01:31:14.174Z,22.17
2018-02-16T01:33:42.042Z,22.20
2018-02-16T01:36:09.806Z,24.60
2018-02-16T01:38:37.674Z,22.17
2018-02-16T01:41:05.408Z,21.05
2018-02-16T01:43:33.146Z,21.60
2018-02-16T01:46:01.641Z,19.60
2018-02-16T01:48:29.450Z,23.90
2018-02-16T01:50:57.316Z,21.77
2018-02-16T01:53:25.184Z,21.20
2018-02-16T01:55:53.054Z,22.48
2018-02-16T01:58:20.919Z,22.52
2018-02-16T02:00:48.680Z,22.33
2018-02-16T02:03:16.410Z,20.73
2018-02-16T02:05:44.138Z,20.98
2018-02-16T02:08:11.866Z,20.50
2018-02-16T02:10:39.590Z,21.25
2018-02-16T02:13:07.310Z,20.88
2018-02-16T02:15:35.033Z,23.08
2018-02-16T02:18:02.764Z,20.73
2018-02-16T02:20:31.418Z,20.75
2018-02-16T02:22:59.136Z,22.92
2018-02-16T02:25:26.871Z,23.48
2018-02-16T02:27:55.377Z,21.92
2018-02-16T02:30:24.014Z,24.33
2018-02-16T02:32:51.881Z,22.45
2018-02-16T02:35:19.740Z,24.02
2018-02-16T02:37:47.615Z,23.20
2018-02-16T02:40:15.354Z,23.92
2018-02-16T02:42:43.098Z,22.25
2018-02-16T02:45:10.845Z,21.55
2018-02-16T02:47:39.343Z,24.48
2018-02-16T02:50:07.078Z,23.30
2018-02-16T02:52:34.920Z,22.33
2018-02-16T02:55:02.789Z,19.77
2018-02-16T02:57:30.655Z,21.23
2018-02-16T02:59:58.522Z,21.02
2018-02-16T03:02:26.390Z,23.98
2018-02-16T03:04:54.258Z,20.70
2018-02-16T03:07:22.125Z,21.33
2018-02-16T03:09:49.859Z,21.35
2018-02-16T03:12:17.581Z,23.23
2018-02-16T03:14:45.419Z,20.00
2018-02-16T03:17:13.287Z,22.33
2018-02-16T03:19:41.018Z,20.75
2018-02-16T03:22:08.745Z,23.65
2018-02-16T03:24:36.469Z,21.35
2018-02-16T03:27:04.346Z,21.17
2018-02-16T03:29:32.073Z,21.12
2018-02-16T03:31:59.805Z,21.42
2018-02-16T03:34:28.302Z,22.20
2018-02-16T03:36:56.822Z,20.25
2018-02-16T03:39:24.605Z,22.00
2018-02-16T03:41:52.472Z,23.62
2018-02-16T03:44:20.339Z,21.10
2018-02-16T03:46:48.206Z,19.58
2018-02-16T03:49:15.936Z,20.52
2018-02-16T03:51:43.838Z,21.65
2018-02-16T03:54:11.576Z,20.23
2018-02-16T03:56:39.369Z,22.13
2018-02-16T03:59:07.236Z,23.30
2018-02-16T04:01:34.969Z,20.42
2018-02-16T04:04:02.706Z,21.75
2018-02-16T04:06:30.442Z,22.75
2018-02-16T04:08:58.200Z,19.62
2018-02-16T04:11:25.941Z,21.98
2018-02-16T04:13:53.824Z,22.70
2018-02-16T04:16:22.517Z,23.30
2018-02-16T04:18:50.249Z,23.45
2018-02-16T04:21:18.041Z,23.05
2018-02-16T04:23:45.777Z,22.02
2018-02-16T04:26:13.502Z,21.90
2018-02-16T04:28:42.005Z,26.17
2018-02-16T04:31:09.748Z,24.25
2018-02-16T04:33:38.249Z,31.35
2018-02-16T04:36:06.064Z,30.40
2018-02-16T04:38:33.932Z,32.28
2018-02-16T04:41:01.669Z,28.15
2018-02-16T04:43:29.458Z,27.35
2018-02-16T04:45:57.329Z,27.85
2018-02-16T04:48:25.062Z,28.08
2018-02-16T04:50:52.960Z,27.83
2018-02-16T04:53:20.828Z,26.75
2018-02-16T04:55:48.695Z,28.10
2018-02-16T04:58:16.425Z,27.08
2018-02-16T05:00:44.226Z,28.35
2018-02-16T05:03:11.973Z,31.25
2018-02-16T05:05:39.694Z,31.27
2018-02-16T05:08:08.189Z,32.70
2018-02-16T05:10:36.002Z,31.20
2018-02-16T05:13:03.868Z,30.00
2018-02-16T05:15:31.601Z,26.48
2018-02-16T05:17:59.333Z,28.12
2018-02-16T05:20:27.880Z,26.00
2018-02-16T05:22:55.748Z,25.35
2018-02-16T05:25:23.482Z,22.77
2018-02-16T05:27:51.214Z,20.83
2018-02-16T05:30:19.759Z,22.50
2018-02-16T05:32:47.625Z,21.20
2018-02-16T05:35:15.365Z,30.62
2018-02-16T05:37:43.259Z,26.83
2018-02-16T05:40:10.982Z,26.42
2018-02-16T05:42:38.788Z,33.78
2018-02-16T05:45:06.657Z,27.37
2018-02-16T05:47:34.522Z,30.95
2018-02-16T05:50:02.394Z,22.87
2018-02-16T05:52:30.185Z,23.08
2018-02-16T05:54:58.698Z,29.77
2018-02-16T05:57:26.424Z,24.48
2018-02-16T05:59:54.162Z,31.02
2018-02-16T06:02:21.938Z,32.67
2018-02-16T06:04:49.799Z,29.58
2018-02-16T06:07:17.561Z,25.08
2018-02-16T06:09:45.430Z,26.00
2018-02-16T06:12:13.297Z,23.08
2018-02-16T06:14:41.162Z,28.70
2018-02-16T06:17:09.033Z,22.13
2018-02-16T06:19:36.766Z,34.63
2018-02-16T06:22:04.485Z,28.42
2018-02-16T06:24:32.216Z,29.37
2018-02-16T06:26:59.946Z,28.98
2018-02-16T06:29:27.754Z,25.48
2018-02-16T06:31:55.485Z,26.40
2018-02-16T06:34:23.230Z,23.35
2018-02-16T06:36:51.718Z,23.10
2018-02-16T06:39:19.450Z,22.08
2018-02-16T06:41:47.296Z,26.87
2018-02-16T06:44:15.026Z,23.02
2018-02-16T06:46:42.827Z,23.10
2018-02-16T06:49:10.562Z,20.00
2018-02-16T06:51:38.289Z,23.42
2018-02-16T06:54:06.785Z,22.48
2018-02-16T06:56:34.505Z,21.10
2018-02-16T06:59:02.373Z,24.37
2018-02-16T07:01:30.237Z,20.77
2018-02-16T07:03:57.966Z,21.00
2018-02-16T07:06:25.709Z,20.33
2018-02-16T07:08:54.491Z,20.83
2018-02-16T07:11:22.980Z,19.37
2018-02-16T07:13:50.805Z,20.02
2018-02-16T07:16:18.675Z,21.00
2018-02-16T07:18:46.535Z,19.25
2018-02-16T07:21:14.261Z,18.02
2018-02-16T07:23:42.064Z,21.90
2018-02-16T07:26:09.932Z,21.45
2018-02-16T07:28:37.800Z,27.65
2018-02-16T07:31:05.672Z,23.52
2018-02-16T07:33:33.536Z,21.33
2018-02-16T07:36:01.403Z,19.85
2018-02-16T07:38:29.165Z,20.88
2018-02-16T07:40:57.034Z,18.52
2018-02-16T07:43:24.905Z,19.20
2018-02-16T07:45:52.767Z,20.92
2018-02-16T07:48:20.636Z,20.58
2018-02-16T07:50:48.400Z,19.45
2018-02-16T07:53:16.110Z,18.55
2018-02-16T07:55:44.618Z,17.77
2018-02-16T07:58:12.513Z,17.92
2018-02-16T08:00:40.383Z,22.37
2018-02-16T08:03:08.096Z,18.77
2018-02-16T08:05:35.816Z,20.62
2018-02-16T08:08:03.570Z,19.67
2018-02-16T08:10:31.285Z,23.33
2018-02-16T08:12:59.767Z,21.92
2018-02-16T08:15:28.404Z,20.17
2018-02-16T08:17:56.271Z,28.42
2018-02-16T08:20:24.142Z,20.98
2018-02-16T08:22:52.006Z,21.77
2018-02-16T08:25:19.874Z,21.87
2018-02-16T08:27:47.601Z,24.25
2018-02-16T08:30:15.326Z,28.98
2018-02-16T08:32:43.169Z,22.45
2018-02-16T08:35:10.900Z,20.00
2018-02-16T08:37:38.700Z,18.20
2018-02-16T08:40:06.426Z,16.58
2018-02-16T08:42:34.177Z,21.02
2018-02-16T08:45:01.914Z,17.55
2018-02-16T08:47:29.760Z,20.30
2018-02-16T08:49:57.558Z,18.02
2018-02-16T08:52:26.098Z,19.42
2018-02-16T08:54:53.974Z,19.75
2018-02-16T08:57:21.740Z,19.73
2018-02-16T08:59:49.468Z,18.42
2018-02-16T09:02:17.194Z,17.50
2018-02-16T09:04:44.929Z,23.10
2018-02-16T09:07:12.661Z,17.73
2018-02-16T09:09:40.384Z,18.80
2018-02-16T09:12:08.226Z,19.58
2018-02-16T09:14:36.094Z,17.20
2018-02-16T09:17:03.830Z,15.70
2018-02-16T09:19:31.557Z,16.17
2018-02-16T09:22:00.216Z,15.35
2018-02-16T09:24:28.894Z,16.17
2018-02-16T09:26:56.761Z,17.17
2018-02-16T09:29:24.498Z,18.62
2018-02-16T09:31:52.218Z,15.85
2018-02-16T09:34:19.925Z,16.83
2018-02-16T09:36:47.700Z,15.13
2018-02-16T09:39:19.479Z,15.73
2018-02-16T09:41:47.346Z,17.58
2018-02-16T09:44:15.096Z,16.00
2018-02-16T09:46:42.811Z,13.18
2018-02-16T09:49:11.301Z,15.00
2018-02-16T09:51:39.782Z,16.12
2018-02-16T09:54:08.265Z,17.50
2018-02-16T09:56:36.737Z,15.82
2018-02-16T09:59:05.209Z,17.55
2018-02-16T10:01:32.918Z,17.05
2018-02-16T10:04:00.637Z,12.93
2018-02-16T10:06:29.122Z,15.00
2018-02-16T10:08:57.777Z,15.40
2018-02-16T10:11:25.643Z,14.35
2018-02-16T10:13:53.512Z,14.52
2018-02-16T10:16:21.275Z,14.75
2018-02-16T10:18:48.990Z,16.02
2018-02-16T10:21:16.721Z,16.17
2018-02-16T10:23:44.446Z,16.87
2018-02-16T10:26:12.157Z,14.85
2018-02-16T10:28:39.998Z,13.48
2018-02-16T10:31:07.714Z,13.52
2018-02-16T10:33:35.428Z,16.17
2018-02-16T10:36:03.192Z,14.55
2018-02-16T10:38:30.955Z,16.02
2018-02-16T10:40:58.761Z,15.45
2018-02-16T10:43:27.237Z,14.40
2018-02-16T10:45:55.717Z,14.57
2018-02-16T10:48:24.205Z,13.85
2018-02-16T10:50:52.681Z,17.48
2018-02-16T10:53:21.166Z,15.60
2018-02-16T10:55:49.642Z,16.12
2018-02-16T10:58:18.122Z,14.15
2018-02-16T11:00:51.594Z,14.45
2018-02-16T11:03:25.130Z,14.05
2018-02-16T11:05:53.776Z,14.23
2018-02-16T11:08:27.379Z,15.32
2018-02-16T11:10:55.125Z,13.90
2018-02-16T11:13:22.837Z,14.93
2018-02-16T11:15:50.553Z,14.48
2018-02-16T11:18:18.339Z,13.75
2018-02-16T11:20:46.204Z,13.98
2018-02-16T11:23:14.071Z,17.25
2018-02-16T11:25:41.793Z,25.02
2018-02-16T11:28:09.506Z,15.77
2018-02-16T11:30:37.239Z,15.35
2018-02-16T11:33:04.964Z,15.98
2018-02-16T11:35:33.453Z,16.60
2018-02-16T11:38:01.947Z,15.20
2018-02-16T11:40:29.682Z,15.75
2018-02-16T11:42:57.407Z,16.50
2018-02-16T11:45:25.161Z,14.50
2018-02-16T11:47:53.052Z,17.83
2018-02-16T11:50:20.786Z,16.27
2018-02-16T11:52:48.510Z,17.65
2018-02-16T11:55:17.008Z,19.02
2018-02-16T11:57:45.500Z,18.73
2018-02-16T12:00:13.234Z,18.80
2018-02-16T12:02:40.967Z,17.35
2018-02-16T12:05:08.697Z,18.37
2018-02-16T12:07:36.422Z,18.87
2018-02-16T12:10:04.200Z,16.08
2018-02-16T12:12:32.697Z,17.50
2018-02-16T12:15:00.426Z,17.17
2018-02-16T12:17:28.185Z,17.00
2018-02-16T12:19:55.919Z,17.27
2018-02-16T12:22:23.650Z,17.20
2018-02-16T12:24:52.146Z,17.27
2018-02-16T12:27:19.882Z,18.20
2018-02-16T12:29:48.414Z,16.37
2018-02-16T12:32:16.145Z,15.68
2018-02-16T12:34:44.634Z,16.33
2018-02-16T12:37:12.370Z,16.95
2018-02-16T12:39:40.114Z,15.10
2018-02-16T12:42:07.857Z,14.82
2018-02-16T12:44:35.611Z,15.50
2018-02-16T12:47:03.365Z,16.05
2018-02-16T12:49:31.105Z,15.27
2018-02-16T12:51:59.609Z,14.38
2018-02-16T12:54:27.345Z,16.10
2018-02-16T12:56:55.833Z,15.32
2018-02-16T12:59:24.333Z,15.35
2018-02-16T13:01:52.070Z,15.25
2018-02-16T13:04:20.624Z,14.30
2018-02-16T13:06:48.366Z,15.02
2018-02-16T13:09:16.135Z,14.23
2018-02-16T13:11:43.877Z,14.82
2018-02-16T13:14:11.621Z,13.68
2018-02-16T13:16:40.120Z,12.80
2018-02-16T13:19:07.852Z,11.30
2018-02-16T13:21:35.620Z,12.32
2018-02-16T13:24:03.355Z,14.90
2018-02-16T13:26:31.105Z,8.10
2018-02-16T13:28:58.828Z,9.15
2018-02-16T13:31:27.371Z,8.32
2018-02-16T13:33:55.106Z,10.35
2018-02-16T13:36:22.886Z,9.75
2018-02-16T13:38:50.609Z,9.30
2018-02-16T13:41:19.103Z,10.00
2018-02-16T13:43:46.897Z,6.70
2018-02-16T13:46:14.618Z,6.40
2018-02-16T13:48:42.359Z,8.95
2018-02-16T13:51:10.089Z,7.25
2018-02-16T13:53:37.821Z,5.18
2018-02-16T13:56:05.561Z,4.80
2018-02-16T13:58:34.061Z,9.77
2018-02-16T14:01:02.566Z,7.60
2018-02-16T14:03:30.463Z,6.65
2018-02-16T14:05:58.332Z,6.20
2018-02-16T14:08:26.201Z,6.43
2018-02-16T14:10:54.066Z,12.48
2018-02-16T14:13:21.803Z,4.87
2018-02-16T14:15:49.542Z,5.43
2018-02-16T14:18:18.057Z,4.85
2018-02-16T14:20:45.944Z,4.47
2018-02-16T14:23:13.686Z,10.65
2018-02-16T14:25:41.454Z,5.90
2018-02-16T14:28:09.190Z,3.40
2018-02-16T14:30:36.918Z,8.77
2018-02-16T14:33:04.654Z,4.25
2018-02-16T14:35:32.385Z,3.30
2018-02-16T14:38:00.299Z,5.40
2018-02-16T14:40:28.167Z,4.78
2018-02-16T14:42:56.035Z,3.42
2018-02-16T14:45:23.782Z,2.70
2018-02-16T14:47:51.519Z,7.62
2018-02-16T14:50:19.249Z,3.10
2018-02-16T14:52:47.002Z,3.50
2018-02-16T14:55:14.732Z,5.65
2018-02-16T14:57:42.462Z,4.05
2018-02-16T15:00:10.949Z,5.10
2018-02-16T15:02:39.446Z,5.20
2018-02-16T15:05:07.169Z,4.10
2018-02-16T15:07:34.898Z,4.28
2018-02-16T15:10:02.620Z,4.12
2018-02-16T15:12:31.118Z,4.03
2018-02-16T15:14:59.027Z,4.45
2018-02-16T15:17:26.822Z,3.55
2018-02-16T15:19:55.374Z,3.70
2018-02-16T15:22:23.110Z,4.00
2018-02-16T15:24:50.842Z,3.25
2018-02-16T15:27:19.329Z,3.58
2018-02-16T15:29:47.830Z,4.40
2018-02-16T15:32:15.557Z,4.62
2018-02-16T15:34:43.318Z,4.10
2018-02-16T15:37:11.042Z,3.95
2018-02-16T15:39:38.776Z,3.75
2018-02-16T15:42:06.510Z,4.40
2018-02-16T15:44:34.233Z,5.10
2018-02-16T15:47:01.968Z,3.30
2018-02-16T15:49:29.694Z,4.93
2018-02-16T15:51:57.418Z,3.67
2018-02-16T15:54:25.146Z,3.10
2018-02-16T15:56:53.637Z,4.05
2018-02-16T15:59:22.128Z,3.15
2018-02-16T16:01:49.850Z,3.87
2018-02-16T16:04:17.704Z,3.58
2018-02-16T16:06:45.573Z,3.30
2018-02-16T16:09:13.439Z,3.50
2018-02-16T16:11:41.310Z,3.40
2018-02-16T16:14:09.834Z,2.87
2018-02-16T16:16:38.342Z,3.85
2018-02-16T16:19:06.074Z,3.22
2018-02-16T16:21:35.256Z,3.83
2018-02-16T16:24:03.090Z,4.00
2018-02-16T16:26:32.932Z,4.93
2018-02-16T16:29:00.670Z,3.75
2018-02-16T16:31:28.383Z,3.90
2018-02-16T16:33:56.854Z,4.03
2018-02-16T16:36:25.390Z,4.07
2018-02-16T16:38:53.114Z,3.97
2018-02-16T16:41:21.590Z,4.22
2018-02-16T16:43:50.065Z,3.50
2018-02-16T16:46:18.533Z,3.95
2018-02-16T16:48:46.241Z,3.08
2018-02-16T16:51:13.958Z,3.37
2018-02-16T16:53:41.809Z,4.10
2018-02-16T16:56:09.676Z,3.37
2018-02-16T16:58:37.403Z,3.58
2018-02-16T17:01:05.128Z,3.50
2018-02-16T17:03:32.848Z,3.30
2018-02-16T17:06:00.736Z,4.40
2018-02-16T17:08:28.604Z,3.55
2018-02-16T17:10:56.325Z,4.50
2018-02-16T17:13:24.132Z,3.17
2018-02-16T17:15:52.000Z,3.62
2018-02-16T17:18:19.868Z,3.50
2018-02-16T17:20:47.606Z,4.40
2018-02-16T17:23:15.329Z,4.37
2018-02-16T17:25:43.981Z,4.75
2018-02-16T17:28:11.748Z,4.32
2018-02-16T17:30:39.614Z,3.70
2018-02-16T17:33:07.330Z,3.92
2018-02-16T17:35:35.057Z,3.62
2018-02-16T17:38:02.784Z,4.12
2018-02-16T17:40:30.506Z,4.00
2018-02-16T17:42:58.991Z,3.97
2018-02-16T17:45:27.637Z,4.15
2018-02-16T17:47:55.361Z,3.70
2018-02-16T17:50:23.169Z,4.32
2018-02-16T17:52:51.034Z,4.60
2018-02-16T17:55:18.902Z,5.53
2018-02-16T17:57:46.617Z,4.78
2018-02-16T18:00:14.346Z,5.95
2018-02-16T18:02:42.101Z,5.18
2018-02-16T18:05:09.813Z,4.15
2018-02-16T18:07:37.533Z,4.90
2018-02-16T18:10:05.258Z,4.57
2018-02-16T18:12:33.153Z,4.65
2018-02-16T18:15:01.022Z,4.22
2018-02-16T18:17:28.899Z,3.97
2018-02-16T18:19:56.755Z,5.03
2018-02-16T18:22:24.470Z,5.30
2018-02-16T18:24:52.285Z,6.47
2018-02-16T18:27:20.152Z,5.93
2018-02-16T18:29:47.918Z,6.60
2018-02-16T18:32:15.783Z,6.95
2018-02-16T18:34:43.653Z,7.55
2018-02-16T18:37:11.381Z,7.80
2018-02-16T18:39:39.102Z,8.30
2018-02-16T18:42:06.831Z,7.75
2018-02-16T18:44:34.710Z,8.02
2018-02-16T18:47:02.437Z,7.60
2018-02-16T18:49:30.159Z,6.97
2018-02-16T18:51:58.005Z,7.43
2018-02-16T18:54:25.872Z,7.35
2018-02-16T18:56:53.740Z,6.53
2018-02-16T18:59:21.470Z,6.93
2018-02-16T19:01:49.189Z,7.05
2018-02-16T19:04:17.035Z,6.50
2018-02-16T19:06:44.762Z,7.07
2018-02-16T19:09:12.564Z,7.55
2018-02-16T19:11:40.433Z,8.57
2018-02-16T19:14:08.196Z,9.02
2018-02-16T19:16:36.064Z,8.32
2018-02-16T19:19:03.792Z,8.20
2018-02-16T19:21:31.593Z,7.75
2018-02-16T19:23:59.768Z,8.68
2018-02-16T19:26:28.305Z,6.95
2018-02-16T19:28:56.117Z,6.72
2018-02-16T19:31:23.842Z,6.78
2018-02-16T19:33:51.567Z,6.80
2018-02-16T19:36:19.899Z,7.53
2018-02-16T19:38:48.201Z,7.45
2018-02-16T19:41:17.503Z,6.80
2018-02-16T19:43:46.123Z,7.62
2018-02-16T19:46:15.266Z,6.57
2018-02-16T19:48:43.090Z,7.53
2018-02-16T19:51:11.598Z,6.03
2018-02-16T19:53:39.315Z,7.43
2018-02-16T19:56:07.469Z,8.52
2018-02-16T19:58:36.976Z,6.80
2018-02-16T20:01:05.764Z,6.97
2018-02-16T20:03:33.632Z,12.15
2018-02-16T20:06:01.499Z,11.15
2018-02-16T20:08:29.368Z,9.18
2018-02-16T20:10:57.086Z,8.93
2018-02-16T20:13:24.896Z,8.55
2018-02-16T20:15:53.129Z,9.85
2018-02-16T20:18:21.757Z,9.30
2018-02-16T20:20:49.627Z,11.52
2018-02-16T20:23:17.351Z,10.77
2018-02-16T20:25:45.154Z,9.80
2018-02-16T20:28:13.021Z,11.02
2018-02-16T20:30:40.889Z,12.70
2018-02-16T20:33:08.756Z,12.10
2018-02-16T20:35:36.623Z,12.43
2018-02-16T20:38:04.490Z,12.73
2018-02-16T20:40:32.358Z,13.20
2018-02-16T20:43:00.378Z,12.82
2018-02-16T20:45:28.153Z,13.20
2018-02-16T20:47:55.959Z,12.18
2018-02-16T20:50:23.710Z,12.32
2018-02-16T20:52:51.431Z,12.55
2018-02-16T20:55:19.927Z,13.13
2018-02-16T20:57:47.736Z,13.25
2018-02-16T21:00:15.466Z,11.98
2018-02-16T21:02:43.182Z,12.20
2018-02-16T21:05:11.031Z,12.10
2018-02-16T21:07:38.900Z,10.90
2018-02-16T21:10:06.766Z,11.40
2018-02-16T21:12:34.632Z,13.23
2018-02-16T21:15:02.513Z,14.27
2018-02-16T21:17:30.369Z,13.15
2018-02-16T21:19:58.234Z,11.35
2018-02-16T21:22:26.102Z,12.50
2018-02-16T21:24:53.969Z,11.25
2018-02-16T21:27:21.837Z,12.18
2018-02-16T21:29:49.703Z,14.68
2018-02-16T21:32:17.574Z,13.05
2018-02-16T21:34:45.438Z,12.55
2018-02-16T21:37:13.306Z,13.20
2018-02-16T21:39:41.173Z,13.45
2018-02-16T21:42:09.039Z,12.55
2018-02-16T21:44:36.907Z,14.45
2018-02-16T21:47:04.775Z,15.40
2018-02-16T21:49:32.642Z,15.25
2018-02-16T21:52:00.509Z,14.90
2018-02-16T21:54:28.377Z,14.55
2018-02-16T21:56:56.244Z,14.75
2018-02-16T21:59:24.110Z,13.18
2018-02-16T22:01:51.980Z,15.82
2018-02-16T22:04:19.846Z,18.20
2018-02-16T22:06:47.714Z,15.75
2018-02-16T22:09:15.662Z,16.95
2018-02-16T22:11:43.550Z,17.33
2018-02-16T22:14:11.417Z,18.20
2018-02-16T22:16:39.284Z,17.90
2018-02-16T22:19:07.152Z,17.02
2018-02-16T22:21:35.019Z,17.37
2018-02-16T22:24:02.888Z,19.12
2018-02-16T22:26:30.753Z,18.50
2018-02-16T22:28:58.621Z,19.30
2018-02-16T22:31:26.489Z,18.20
2018-02-16T22:33:54.356Z,16.50
2018-02-16T22:36:22.223Z,19.17
2018-02-16T22:38:50.090Z,20.50
2018-02-16T22:41:17.958Z,19.83
2018-02-16T22:43:45.824Z,19.00
2018-02-16T22:46:13.692Z,22.17
2018-02-16T22:48:41.559Z,20.02
2018-02-16T22:51:09.734Z,20.10
2018-02-16T22:53:43.414Z,17.83
2018-02-16T22:56:14.009Z,19.42
2018-02-16T22:58:44.497Z,19.37
2018-02-16T23:01:15.684Z,21.17
2018-02-16T23:03:46.570Z,20.02
2018-02-16T23:06:29.339Z,21.12
2018-02-16T23:09:00.177Z,21.02
2018-02-16T23:11:31.919Z,23.02
2018-02-16T23:14:03.776Z,21.85
2018-02-16T23:16:32.134Z,22.33
2018-02-16T23:19:02.308Z,24.17
2018-02-16T23:21:32.962Z,20.23
2018-02-16T23:24:03.427Z,20.42
2018-02-16T23:26:33.426Z,20.48
2018-02-16T23:29:04.662Z,19.30
2018-02-16T23:31:34.832Z,24.02
2018-02-16T23:34:05.023Z,21.12
2018-02-16T23:36:35.388Z,21.62
2018-02-16T23:39:03.552Z,23.35
2018-02-16T23:41:32.209Z,24.02
2018-02-16T23:44:00.025Z,22.00
2018-02-16T23:46:27.830Z,21.85
2018-02-16T23:48:56.476Z,21.62
2018-02-16T23:51:24.342Z,21.50
2018-02-16T23:53:52.211Z,20.02
2018-02-16T23:56:20.080Z,22.05
2018-02-16T23:58:47.949Z,22.00
